sensor_id;sensor_type;location;lat;lon;timestamp;temperature;humidity
18406;DHT22;9329;48.720;9.588;2022-10-18T00:00:43;14.90;99.90
18406;DHT22;9329;48.720;9.588;2022-10-18T00:03:10;14.90;99.90
18406;DHT22;9329;48.720;9.588;2022-10-18T00:05:37;14.70;99.90
18406;DHT22;9329;48.720;9.588;2022-10-18T00:08:04;14.80;99.90
18406;DHT22;9329;48.720;9.588;2022-10-18T00:10:31;15.00;99.90
18406;DHT22;9329;48.720;9.588;2022-10-18T00:12:59;15.10;99.90
18406;DHT22;9329;48.720;9.588;2022-10-18T00:15:26;15.10;99.90
18406;DHT22;9329;48.720;9.588;2022-10-18T00:17:52;14.40;99.90
18406;DHT22;9329;48.720;9.588;2022-10-18T00:20:19;14.10;99.90
18406;DHT22;9329;48.720;9.588;2022-10-18T00:22:46;14.30;99.90
18406;DHT22;9329;48.720;9.588;2022-10-18T00:25:13;14.50;99.90
18406;DHT22;9329;48.720;9.588;2022-10-18T00:27:39;14.80;99.90
18406;DHT22;9329;48.720;9.588;2022-10-18T00:30:08;14.80;99.90
18406;DHT22;9329;48.720;9.588;2022-10-18T00:32:35;14.80;99.90
18406;DHT22;9329;48.720;9.588;2022-10-18T00:35:02;14.60;99.90
18406;DHT22;9329;48.720;9.588;2022-10-18T00:37:29;14.80;99.90
18406;DHT22;9329;48.720;9.588;2022-10-18T00:39:56;14.80;99.90
18406;DHT22;9329;48.720;9.588;2022-10-18T00:42:24;14.90;99.90
18406;DHT22;9329;48.720;9.588;2022-10-18T00:44:59;14.80;99.90
18406;DHT22;9329;48.720;9.588;2022-10-18T00:47:28;14.60;99.90
18406;DHT22;9329;48.720;9.588;2022-10-18T00:49:56;14.70;99.90
18406;DHT22;9329;48.720;9.588;2022-10-18T00:52:27;14.70;99.90
18406;DHT22;9329;48.720;9.588;2022-10-18T00:54:54;14.90;99.90
18406;DHT22;9329;48.720;9.588;2022-10-18T00:57:22;14.80;99.90
18406;DHT22;9329;48.720;9.588;2022-10-18T00:59:49;14.70;99.90
18406;DHT22;9329;48.720;9.588;2022-10-18T01:02:16;14.80;99.90
18406;DHT22;9329;48.720;9.588;2022-10-18T01:04:45;14.70;99.90
18406;DHT22;9329;48.720;9.588;2022-10-18T01:07:14;14.70;99.90
18406;DHT22;9329;48.720;9.588;2022-10-18T01:09:46;14.70;99.90
18406;DHT22;9329;48.720;9.588;2022-10-18T01:12:17;14.60;99.90
18406;DHT22;9329;48.720;9.588;2022-10-18T01:14:48;14.30;99.90
18406;DHT22;9329;48.720;9.588;2022-10-18T01:17:18;14.60;99.90
18406;DHT22;9329;48.720;9.588;2022-10-18T01:22:32;14.40;99.90
18406;DHT22;9329;48.720;9.588;2022-10-18T01:25:04;14.00;99.90
18406;DHT22;9329;48.720;9.588;2022-10-18T01:27:42;14.50;99.90
18406;DHT22;9329;48.720;9.588;2022-10-18T01:30:22;14.60;99.90
18406;DHT22;9329;48.720;9.588;2022-10-18T01:32:56;14.30;99.90
18406;DHT22;9329;48.720;9.588;2022-10-18T01:35:28;14.60;99.90
18406;DHT22;9329;48.720;9.588;2022-10-18T01:37:56;14.50;99.90
18406;DHT22;9329;48.720;9.588;2022-10-18T01:40:24;14.60;99.90
18406;DHT22;9329;48.720;9.588;2022-10-18T01:42:52;14.70;99.90
18406;DHT22;9329;48.720;9.588;2022-10-18T01:45:19;14.80;99.90
18406;DHT22;9329;48.720;9.588;2022-10-18T01:47:48;15.30;99.90
18406;DHT22;9329;48.720;9.588;2022-10-18T01:50:21;15.20;99.90
18406;DHT22;9329;48.720;9.588;2022-10-18T01:52:53;15.30;99.90
18406;DHT22;9329;48.720;9.588;2022-10-18T01:55:20;15.40;99.90
18406;DHT22;9329;48.720;9.588;2022-10-18T01:57:55;15.20;99.90
18406;DHT22;9329;48.720;9.588;2022-10-18T02:00:25;15.30;99.90
18406;DHT22;9329;48.720;9.588;2022-10-18T02:02:58;15.40;99.90
18406;DHT22;9329;48.720;9.588;2022-10-18T02:05:27;15.40;99.90
18406;DHT22;9329;48.720;9.588;2022-10-18T02:07:59;15.40;99.90
18406;DHT22;9329;48.720;9.588;2022-10-18T02:10:28;15.40;99.90
18406;DHT22;9329;48.720;9.588;2022-10-18T02:12:57;15.60;99.90
18406;DHT22;9329;48.720;9.588;2022-10-18T02:15:28;15.30;99.90
18406;DHT22;9329;48.720;9.588;2022-10-18T02:17:56;14.90;99.90
18406;DHT22;9329;48.720;9.588;2022-10-18T02:20:23;15.10;99.90
18406;DHT22;9329;48.720;9.588;2022-10-18T02:22:51;15.30;99.90
18406;DHT22;9329;48.720;9.588;2022-10-18T02:25:20;15.20;99.90
18406;DHT22;9329;48.720;9.588;2022-10-18T02:27:47;14.60;99.90
18406;DHT22;9329;48.720;9.588;2022-10-18T02:30:15;14.10;99.90
18406;DHT22;9329;48.720;9.588;2022-10-18T02:32:43;14.00;99.90
18406;DHT22;9329;48.720;9.588;2022-10-18T02:35:15;14.80;99.90
18406;DHT22;9329;48.720;9.588;2022-10-18T02:37:43;14.60;99.90
18406;DHT22;9329;48.720;9.588;2022-10-18T02:40:12;15.00;99.90
18406;DHT22;9329;48.720;9.588;2022-10-18T02:42:42;15.20;99.90
18406;DHT22;9329;48.720;9.588;2022-10-18T02:45:09;15.00;99.90
18406;DHT22;9329;48.720;9.588;2022-10-18T02:47:36;15.20;99.90
18406;DHT22;9329;48.720;9.588;2022-10-18T02:50:03;15.20;99.90
18406;DHT22;9329;48.720;9.588;2022-10-18T02:52:32;15.00;99.90
18406;DHT22;9329;48.720;9.588;2022-10-18T02:54:58;14.90;99.90
18406;DHT22;9329;48.720;9.588;2022-10-18T02:57:25;15.50;99.90
18406;DHT22;9329;48.720;9.588;2022-10-18T02:59:52;15.50;99.90
18406;DHT22;9329;48.720;9.588;2022-10-18T03:02:19;15.40;99.90
18406;DHT22;9329;48.720;9.588;2022-10-18T03:04:46;15.20;99.90
18406;DHT22;9329;48.720;9.588;2022-10-18T03:07:12;15.40;99.90
18406;DHT22;9329;48.720;9.588;2022-10-18T03:09:40;15.50;99.90
18406;DHT22;9329;48.720;9.588;2022-10-18T03:12:07;15.70;99.90
18406;DHT22;9329;48.720;9.588;2022-10-18T03:14:34;15.70;99.90
18406;DHT22;9329;48.720;9.588;2022-10-18T03:17:01;15.80;99.90
18406;DHT22;9329;48.720;9.588;2022-10-18T03:19:28;15.70;99.90
18406;DHT22;9329;48.720;9.588;2022-10-18T03:21:54;15.50;99.90
18406;DHT22;9329;48.720;9.588;2022-10-18T03:24:21;15.80;99.90
18406;DHT22;9329;48.720;9.588;2022-10-18T03:26:49;15.80;99.90
18406;DHT22;9329;48.720;9.588;2022-10-18T03:29:16;15.60;99.90
18406;DHT22;9329;48.720;9.588;2022-10-18T03:31:43;15.60;99.90
18406;DHT22;9329;48.720;9.588;2022-10-18T03:34:10;15.70;99.90
18406;DHT22;9329;48.720;9.588;2022-10-18T03:36:36;15.60;99.90
18406;DHT22;9329;48.720;9.588;2022-10-18T03:39:05;15.90;99.90
18406;DHT22;9329;48.720;9.588;2022-10-18T03:41:32;16.10;99.90
18406;DHT22;9329;48.720;9.588;2022-10-18T03:44:00;15.80;99.90
18406;DHT22;9329;48.720;9.588;2022-10-18T03:46:27;16.00;99.90
18406;DHT22;9329;48.720;9.588;2022-10-18T03:48:54;15.70;99.90
18406;DHT22;9329;48.720;9.588;2022-10-18T03:51:21;15.90;99.90
18406;DHT22;9329;48.720;9.588;2022-10-18T03:53:47;15.80;99.90
18406;DHT22;9329;48.720;9.588;2022-10-18T03:56:14;15.60;99.90
18406;DHT22;9329;48.720;9.588;2022-10-18T03:58:41;15.00;99.90
18406;DHT22;9329;48.720;9.588;2022-10-18T04:01:09;15.20;99.90
18406;DHT22;9329;48.720;9.588;2022-10-18T04:03:36;15.50;99.90
18406;DHT22;9329;48.720;9.588;2022-10-18T04:06:03;15.60;99.90
18406;DHT22;9329;48.720;9.588;2022-10-18T04:08:29;15.20;99.90
18406;DHT22;9329;48.720;9.588;2022-10-18T04:10:56;15.10;99.90
18406;DHT22;9329;48.720;9.588;2022-10-18T04:13:23;14.50;99.90
18406;DHT22;9329;48.720;9.588;2022-10-18T04:15:50;15.10;99.90
18406;DHT22;9329;48.720;9.588;2022-10-18T04:18:18;15.00;99.90
18406;DHT22;9329;48.720;9.588;2022-10-18T04:20:45;15.10;99.90
18406;DHT22;9329;48.720;9.588;2022-10-18T04:23:11;15.10;99.90
18406;DHT22;9329;48.720;9.588;2022-10-18T04:25:38;15.60;99.90
18406;DHT22;9329;48.720;9.588;2022-10-18T04:28:05;15.60;99.90
18406;DHT22;9329;48.720;9.588;2022-10-18T04:30:32;15.90;99.90
18406;DHT22;9329;48.720;9.588;2022-10-18T04:32:58;16.10;99.90
18406;DHT22;9329;48.720;9.588;2022-10-18T04:35:27;16.00;99.90
18406;DHT22;9329;48.720;9.588;2022-10-18T04:37:54;16.00;99.90
18406;DHT22;9329;48.720;9.588;2022-10-18T04:40:20;16.10;99.90
18406;DHT22;9329;48.720;9.588;2022-10-18T04:42:47;15.80;99.90
18406;DHT22;9329;48.720;9.588;2022-10-18T04:45:14;15.50;99.90
18406;DHT22;9329;48.720;9.588;2022-10-18T04:47:41;15.30;99.90
18406;DHT22;9329;48.720;9.588;2022-10-18T04:50:08;15.60;99.90
18406;DHT22;9329;48.720;9.588;2022-10-18T04:52:36;15.70;99.90
18406;DHT22;9329;48.720;9.588;2022-10-18T04:55:03;15.70;99.90
18406;DHT22;9329;48.720;9.588;2022-10-18T04:57:30;15.80;99.90
18406;DHT22;9329;48.720;9.588;2022-10-18T04:59:57;16.00;99.90
18406;DHT22;9329;48.720;9.588;2022-10-18T05:02:24;15.90;99.90
18406;DHT22;9329;48.720;9.588;2022-10-18T05:04:50;15.80;99.90
18406;DHT22;9329;48.720;9.588;2022-10-18T05:07:17;15.50;99.90
18406;DHT22;9329;48.720;9.588;2022-10-18T05:09:46;15.20;99.90
18406;DHT22;9329;48.720;9.588;2022-10-18T05:12:13;15.40;99.90
18406;DHT22;9329;48.720;9.588;2022-10-18T05:14:39;15.40;99.90
18406;DHT22;9329;48.720;9.588;2022-10-18T05:17:06;15.70;99.90
18406;DHT22;9329;48.720;9.588;2022-10-18T05:19:33;15.70;99.90
18406;DHT22;9329;48.720;9.588;2022-10-18T05:22:00;15.60;99.90
18406;DHT22;9329;48.720;9.588;2022-10-18T05:24:27;15.50;99.90
18406;DHT22;9329;48.720;9.588;2022-10-18T05:26:55;15.50;99.90
18406;DHT22;9329;48.720;9.588;2022-10-18T05:29:22;15.30;99.90
18406;DHT22;9329;48.720;9.588;2022-10-18T05:31:49;15.50;99.90
18406;DHT22;9329;48.720;9.588;2022-10-18T05:34:16;15.60;99.90
18406;DHT22;9329;48.720;9.588;2022-10-18T05:36:45;15.40;99.90
18406;DHT22;9329;48.720;9.588;2022-10-18T05:39:11;15.20;99.90
18406;DHT22;9329;48.720;9.588;2022-10-18T05:41:38;15.30;99.90
18406;DHT22;9329;48.720;9.588;2022-10-18T05:44:06;15.40;99.90
18406;DHT22;9329;48.720;9.588;2022-10-18T05:46:33;15.90;99.90
18406;DHT22;9329;48.720;9.588;2022-10-18T05:49:00;15.70;99.90
18406;DHT22;9329;48.720;9.588;2022-10-18T05:51:27;15.50;99.90
18406;DHT22;9329;48.720;9.588;2022-10-18T05:53:54;15.50;99.90
18406;DHT22;9329;48.720;9.588;2022-10-18T05:56:20;15.50;99.90
18406;DHT22;9329;48.720;9.588;2022-10-18T05:58:48;15.70;99.90
18406;DHT22;9329;48.720;9.588;2022-10-18T06:01:17;15.50;99.90
18406;DHT22;9329;48.720;9.588;2022-10-18T06:03:44;15.40;99.90
18406;DHT22;9329;48.720;9.588;2022-10-18T06:06:11;15.30;99.90
18406;DHT22;9329;48.720;9.588;2022-10-18T06:08:38;15.40;99.90
18406;DHT22;9329;48.720;9.588;2022-10-18T06:11:06;15.70;99.90
18406;DHT22;9329;48.720;9.588;2022-10-18T06:13:33;15.80;99.90
18406;DHT22;9329;48.720;9.588;2022-10-18T06:16:00;15.60;99.90
18406;DHT22;9329;48.720;9.588;2022-10-18T06:18:28;15.80;99.90
18406;DHT22;9329;48.720;9.588;2022-10-18T06:20:55;15.70;99.90
18406;DHT22;9329;48.720;9.588;2022-10-18T06:23:22;15.90;99.90
18406;DHT22;9329;48.720;9.588;2022-10-18T06:25:49;15.70;99.90
18406;DHT22;9329;48.720;9.588;2022-10-18T06:28:16;15.30;99.90
18406;DHT22;9329;48.720;9.588;2022-10-18T06:30:42;15.20;99.90
18406;DHT22;9329;48.720;9.588;2022-10-18T06:33:09;15.30;99.90
18406;DHT22;9329;48.720;9.588;2022-10-18T06:35:38;15.50;99.90
18406;DHT22;9329;48.720;9.588;2022-10-18T06:38:05;15.30;99.90
18406;DHT22;9329;48.720;9.588;2022-10-18T06:40:31;15.50;99.90
18406;DHT22;9329;48.720;9.588;2022-10-18T06:43:02;15.30;99.90
18406;DHT22;9329;48.720;9.588;2022-10-18T06:45:30;15.20;99.90
18406;DHT22;9329;48.720;9.588;2022-10-18T06:47:57;15.40;99.90
18406;DHT22;9329;48.720;9.588;2022-10-18T06:50:24;15.30;99.90
18406;DHT22;9329;48.720;9.588;2022-10-18T06:52:52;15.50;99.90
18406;DHT22;9329;48.720;9.588;2022-10-18T06:55:19;15.30;99.90
18406;DHT22;9329;48.720;9.588;2022-10-18T06:57:46;15.30;99.90
18406;DHT22;9329;48.720;9.588;2022-10-18T07:00:13;15.60;99.90
18406;DHT22;9329;48.720;9.588;2022-10-18T07:02:40;15.90;99.90
18406;DHT22;9329;48.720;9.588;2022-10-18T07:05:07;15.90;99.90
18406;DHT22;9329;48.720;9.588;2022-10-18T07:07:34;16.20;99.90
18406;DHT22;9329;48.720;9.588;2022-10-18T07:10:02;16.70;99.90
18406;DHT22;9329;48.720;9.588;2022-10-18T07:12:29;16.50;99.90
18406;DHT22;9329;48.720;9.588;2022-10-18T07:14:56;16.80;99.90
18406;DHT22;9329;48.720;9.588;2022-10-18T07:17:23;17.00;99.90
18406;DHT22;9329;48.720;9.588;2022-10-18T07:19:50;17.00;99.90
18406;DHT22;9329;48.720;9.588;2022-10-18T07:22:17;17.30;99.90
18406;DHT22;9329;48.720;9.588;2022-10-18T07:24:44;17.30;99.90
18406;DHT22;9329;48.720;9.588;2022-10-18T07:27:12;17.30;99.90
18406;DHT22;9329;48.720;9.588;2022-10-18T07:29:39;17.90;99.90
18406;DHT22;9329;48.720;9.588;2022-10-18T07:32:06;18.20;99.90
18406;DHT22;9329;48.720;9.588;2022-10-18T07:34:33;18.10;99.90
18406;DHT22;9329;48.720;9.588;2022-10-18T07:37:00;18.40;99.90
18406;DHT22;9329;48.720;9.588;2022-10-18T07:39:27;18.70;99.90
18406;DHT22;9329;48.720;9.588;2022-10-18T07:41:54;19.00;99.90
18406;DHT22;9329;48.720;9.588;2022-10-18T07:44:22;19.40;99.90
18406;DHT22;9329;48.720;9.588;2022-10-18T07:46:49;19.40;99.90
18406;DHT22;9329;48.720;9.588;2022-10-18T07:49:15;19.20;99.90
18406;DHT22;9329;48.720;9.588;2022-10-18T07:51:42;19.50;99.90
18406;DHT22;9329;48.720;9.588;2022-10-18T07:54:09;19.40;99.90
18406;DHT22;9329;48.720;9.588;2022-10-18T07:56:36;19.20;99.90
18406;DHT22;9329;48.720;9.588;2022-10-18T07:59:03;19.40;99.90
18406;DHT22;9329;48.720;9.588;2022-10-18T08:01:31;19.80;99.90
18406;DHT22;9329;48.720;9.588;2022-10-18T08:03:58;20.50;99.90
18406;DHT22;9329;48.720;9.588;2022-10-18T08:06:25;20.50;99.90
18406;DHT22;9329;48.720;9.588;2022-10-18T08:08:52;20.50;99.90
18406;DHT22;9329;48.720;9.588;2022-10-18T08:11:19;20.10;99.90
18406;DHT22;9329;48.720;9.588;2022-10-18T08:13:46;19.90;99.90
18406;DHT22;9329;48.720;9.588;2022-10-18T08:16:14;20.30;99.90
18406;DHT22;9329;48.720;9.588;2022-10-18T08:18:42;19.90;99.90
18406;DHT22;9329;48.720;9.588;2022-10-18T08:21:10;20.30;99.90
18406;DHT22;9329;48.720;9.588;2022-10-18T08:23:38;20.30;99.90
18406;DHT22;9329;48.720;9.588;2022-10-18T08:26:05;20.80;99.90
18406;DHT22;9329;48.720;9.588;2022-10-18T08:28:32;20.70;99.90
18406;DHT22;9329;48.720;9.588;2022-10-18T08:31:01;20.30;99.90
18406;DHT22;9329;48.720;9.588;2022-10-18T08:33:28;20.30;99.90
18406;DHT22;9329;48.720;9.588;2022-10-18T08:35:56;20.10;99.90
18406;DHT22;9329;48.720;9.588;2022-10-18T08:38:23;19.20;99.90
18406;DHT22;9329;48.720;9.588;2022-10-18T08:40:50;19.60;99.90
18406;DHT22;9329;48.720;9.588;2022-10-18T08:43:21;19.50;99.90
18406;DHT22;9329;48.720;9.588;2022-10-18T08:45:49;19.80;99.90
18406;DHT22;9329;48.720;9.588;2022-10-18T08:48:18;20.00;99.90
18406;DHT22;9329;48.720;9.588;2022-10-18T08:50:47;20.00;99.90
18406;DHT22;9329;48.720;9.588;2022-10-18T08:53:18;20.40;99.90
18406;DHT22;9329;48.720;9.588;2022-10-18T08:55:47;20.40;99.90
18406;DHT22;9329;48.720;9.588;2022-10-18T08:58:18;20.60;99.90
18406;DHT22;9329;48.720;9.588;2022-10-18T09:00:46;20.70;99.90
18406;DHT22;9329;48.720;9.588;2022-10-18T09:03:21;20.50;99.90
18406;DHT22;9329;48.720;9.588;2022-10-18T09:05:53;19.70;99.90
18406;DHT22;9329;48.720;9.588;2022-10-18T09:11:10;20.20;99.90
18406;DHT22;9329;48.720;9.588;2022-10-18T09:13:58;20.40;99.90
18406;DHT22;9329;48.720;9.588;2022-10-18T09:16:30;20.50;99.90
18406;DHT22;9329;48.720;9.588;2022-10-18T09:19:02;20.90;99.90
18406;DHT22;9329;48.720;9.588;2022-10-18T09:21:35;21.60;99.90
18406;DHT22;9329;48.720;9.588;2022-10-18T09:24:08;22.10;99.90
18406;DHT22;9329;48.720;9.588;2022-10-18T09:26:39;22.40;99.90
18406;DHT22;9329;48.720;9.588;2022-10-18T09:31:54;22.30;99.90
18406;DHT22;9329;48.720;9.588;2022-10-18T09:34:24;22.50;99.90
18406;DHT22;9329;48.720;9.588;2022-10-18T09:36:54;22.80;99.90
18406;DHT22;9329;48.720;9.588;2022-10-18T09:39:22;22.30;99.90
18406;DHT22;9329;48.720;9.588;2022-10-18T09:41:53;22.90;99.90
18406;DHT22;9329;48.720;9.588;2022-10-18T09:44:22;22.60;99.90
18406;DHT22;9329;48.720;9.588;2022-10-18T09:46:51;23.00;99.90
18406;DHT22;9329;48.720;9.588;2022-10-18T09:49:20;22.90;99.90
18406;DHT22;9329;48.720;9.588;2022-10-18T09:51:49;23.10;99.90
18406;DHT22;9329;48.720;9.588;2022-10-18T09:54:21;23.00;99.90
18406;DHT22;9329;48.720;9.588;2022-10-18T09:56:50;22.60;99.90
18406;DHT22;9329;48.720;9.588;2022-10-18T09:59:30;22.90;99.90
18406;DHT22;9329;48.720;9.588;2022-10-18T10:01:57;22.40;99.90
18406;DHT22;9329;48.720;9.588;2022-10-18T10:04:24;22.20;99.90
18406;DHT22;9329;48.720;9.588;2022-10-18T10:06:52;22.70;99.90
18406;DHT22;9329;48.720;9.588;2022-10-18T10:09:20;23.20;99.90
18406;DHT22;9329;48.720;9.588;2022-10-18T10:11:50;23.50;99.90
18406;DHT22;9329;48.720;9.588;2022-10-18T10:14:17;23.70;99.90
18406;DHT22;9329;48.720;9.588;2022-10-18T10:16:50;23.40;99.90
18406;DHT22;9329;48.720;9.588;2022-10-18T10:19:18;22.90;99.90
18406;DHT22;9329;48.720;9.588;2022-10-18T10:21:46;22.70;99.90
18406;DHT22;9329;48.720;9.588;2022-10-18T10:24:17;22.50;99.90
18406;DHT22;9329;48.720;9.588;2022-10-18T10:26:46;22.80;99.90
18406;DHT22;9329;48.720;9.588;2022-10-18T10:32:02;22.70;99.90
18406;DHT22;9329;48.720;9.588;2022-10-18T10:34:29;22.50;99.90
18406;DHT22;9329;48.720;9.588;2022-10-18T10:36:56;22.50;99.90
18406;DHT22;9329;48.720;9.588;2022-10-18T10:39:23;22.80;99.90
18406;DHT22;9329;48.720;9.588;2022-10-18T10:41:50;22.80;99.90
18406;DHT22;9329;48.720;9.588;2022-10-18T10:44:18;22.70;99.90
18406;DHT22;9329;48.720;9.588;2022-10-18T10:46:45;22.60;99.90
18406;DHT22;9329;48.720;9.588;2022-10-18T10:49:17;22.50;99.90
18406;DHT22;9329;48.720;9.588;2022-10-18T10:51:45;22.50;99.90
18406;DHT22;9329;48.720;9.588;2022-10-18T10:54:12;22.20;99.90
18406;DHT22;9329;48.720;9.588;2022-10-18T10:56:49;22.70;99.90
18406;DHT22;9329;48.720;9.588;2022-10-18T10:59:17;23.10;99.90
18406;DHT22;9329;48.720;9.588;2022-10-18T11:01:45;23.20;99.90
18406;DHT22;9329;48.720;9.588;2022-10-18T11:04:26;22.20;99.90
18406;DHT22;9329;48.720;9.588;2022-10-18T11:07:01;22.30;99.90
18406;DHT22;9329;48.720;9.588;2022-10-18T11:09:32;22.70;99.90
18406;DHT22;9329;48.720;9.588;2022-10-18T11:12:03;22.90;99.90
18406;DHT22;9329;48.720;9.588;2022-10-18T11:14:33;23.10;99.90
18406;DHT22;9329;48.720;9.588;2022-10-18T11:17:05;23.20;99.90
18406;DHT22;9329;48.720;9.588;2022-10-18T11:19:36;23.40;99.90
18406;DHT22;9329;48.720;9.588;2022-10-18T11:22:05;23.60;99.90
18406;DHT22;9329;48.720;9.588;2022-10-18T11:24:35;23.40;99.90
18406;DHT22;9329;48.720;9.588;2022-10-18T11:27:02;23.80;99.90
18406;DHT22;9329;48.720;9.588;2022-10-18T11:29:38;23.90;99.90
18406;DHT22;9329;48.720;9.588;2022-10-18T11:32:10;24.00;99.90
18406;DHT22;9329;48.720;9.588;2022-10-18T11:34:47;24.00;99.90
18406;DHT22;9329;48.720;9.588;2022-10-18T11:37:21;23.90;99.90
18406;DHT22;9329;48.720;9.588;2022-10-18T11:39:53;24.60;99.90
18406;DHT22;9329;48.720;9.588;2022-10-18T11:42:25;25.90;99.90
18406;DHT22;9329;48.720;9.588;2022-10-18T11:44:58;27.00;99.90
18406;DHT22;9329;48.720;9.588;2022-10-18T11:47:30;27.20;99.90
18406;DHT22;9329;48.720;9.588;2022-10-18T11:50:05;27.20;99.90
18406;DHT22;9329;48.720;9.588;2022-10-18T11:52:36;27.50;99.90
18406;DHT22;9329;48.720;9.588;2022-10-18T11:55:10;26.40;99.90
18406;DHT22;9329;48.720;9.588;2022-10-18T11:57:49;25.70;99.90
18406;DHT22;9329;48.720;9.588;2022-10-18T12:00:19;24.90;99.90
18406;DHT22;9329;48.720;9.588;2022-10-18T12:02:53;24.80;99.90
18406;DHT22;9329;48.720;9.588;2022-10-18T12:05:23;25.30;99.90
18406;DHT22;9329;48.720;9.588;2022-10-18T12:07:51;25.10;99.90
18406;DHT22;9329;48.720;9.588;2022-10-18T12:10:19;25.60;99.90
18406;DHT22;9329;48.720;9.588;2022-10-18T12:12:47;26.20;99.90
18406;DHT22;9329;48.720;9.588;2022-10-18T12:15:17;27.00;99.90
18406;DHT22;9329;48.720;9.588;2022-10-18T12:17:46;27.50;99.90
18406;DHT22;9329;48.720;9.588;2022-10-18T12:20:15;27.80;99.90
18406;DHT22;9329;48.720;9.588;2022-10-18T12:22:46;27.70;99.90
18406;DHT22;9329;48.720;9.588;2022-10-18T12:25:14;28.30;99.90
18406;DHT22;9329;48.720;9.588;2022-10-18T12:27:43;28.10;99.90
18406;DHT22;9329;48.720;9.588;2022-10-18T12:30:13;26.30;99.90
18406;DHT22;9329;48.720;9.588;2022-10-18T12:32:41;25.90;99.90
18406;DHT22;9329;48.720;9.588;2022-10-18T12:35:09;27.00;99.90
18406;DHT22;9329;48.720;9.588;2022-10-18T12:37:57;27.90;99.90
18406;DHT22;9329;48.720;9.588;2022-10-18T12:40:32;28.30;99.90
18406;DHT22;9329;48.720;9.588;2022-10-18T12:43:01;28.70;99.90
18406;DHT22;9329;48.720;9.588;2022-10-18T12:45:33;28.70;99.90
18406;DHT22;9329;48.720;9.588;2022-10-18T12:48:01;28.50;99.90
18406;DHT22;9329;48.720;9.588;2022-10-18T12:50:34;28.20;99.90
18406;DHT22;9329;48.720;9.588;2022-10-18T12:53:04;26.60;99.90
18406;DHT22;9329;48.720;9.588;2022-10-18T12:55:33;26.90;99.90
18406;DHT22;9329;48.720;9.588;2022-10-18T12:58:09;27.10;99.90
18406;DHT22;9329;48.720;9.588;2022-10-18T13:00:56;26.60;99.90
18406;DHT22;9329;48.720;9.588;2022-10-18T13:06:23;29.80;99.90
18406;DHT22;9329;48.720;9.588;2022-10-18T13:09:16;31.50;95.40
18406;DHT22;9329;48.720;9.588;2022-10-18T13:11:43;31.30;94.00
18406;DHT22;9329;48.720;9.588;2022-10-18T13:14:26;30.80;94.50
18406;DHT22;9329;48.720;9.588;2022-10-18T13:17:01;30.80;95.50
18406;DHT22;9329;48.720;9.588;2022-10-18T13:19:32;31.40;92.50
18406;DHT22;9329;48.720;9.588;2022-10-18T13:22:10;30.50;93.10
18406;DHT22;9329;48.720;9.588;2022-10-18T13:24:42;30.30;94.40
18406;DHT22;9329;48.720;9.588;2022-10-18T13:27:16;32.00;91.70
18406;DHT22;9329;48.720;9.588;2022-10-18T13:29:49;29.50;94.80
18406;DHT22;9329;48.720;9.588;2022-10-18T13:32:22;28.50;96.40
18406;DHT22;9329;48.720;9.588;2022-10-18T13:34:50;28.10;97.40
18406;DHT22;9329;48.720;9.588;2022-10-18T13:37:20;27.30;99.90
18406;DHT22;9329;48.720;9.588;2022-10-18T13:40:12;27.10;99.20
18406;DHT22;9329;48.720;9.588;2022-10-18T13:42:38;26.90;99.90
18406;DHT22;9329;48.720;9.588;2022-10-18T13:47:50;26.20;99.90
18406;DHT22;9329;48.720;9.588;2022-10-18T13:56:03;25.20;99.90
18406;DHT22;9329;48.720;9.588;2022-10-18T13:58:35;25.30;99.90
18406;DHT22;9329;48.720;9.588;2022-10-18T14:01:06;25.00;99.90
18406;DHT22;9329;48.720;9.588;2022-10-18T14:03:39;25.40;99.90
18406;DHT22;9329;48.720;9.588;2022-10-18T14:06:11;25.70;99.90
18406;DHT22;9329;48.720;9.588;2022-10-18T14:08:41;25.80;99.90
18406;DHT22;9329;48.720;9.588;2022-10-18T14:11:14;25.70;99.90
18406;DHT22;9329;48.720;9.588;2022-10-18T14:13:44;26.40;99.90
18406;DHT22;9329;48.720;9.588;2022-10-18T14:16:16;28.00;99.90
18406;DHT22;9329;48.720;9.588;2022-10-18T14:18:50;30.50;98.90
18406;DHT22;9329;48.720;9.588;2022-10-18T14:21:21;32.20;95.70
18406;DHT22;9329;48.720;9.588;2022-10-18T14:23:54;33.40;92.30
18406;DHT22;9329;48.720;9.588;2022-10-18T14:26:22;33.70;88.60
18406;DHT22;9329;48.720;9.588;2022-10-18T14:29:03;32.30;90.20
18406;DHT22;9329;48.720;9.588;2022-10-18T14:31:30;32.50;89.30
18406;DHT22;9329;48.720;9.588;2022-10-18T14:33:57;31.90;89.20
18406;DHT22;9329;48.720;9.588;2022-10-18T14:36:24;28.60;94.10
18406;DHT22;9329;48.720;9.588;2022-10-18T14:38:56;27.50;95.70
18406;DHT22;9329;48.720;9.588;2022-10-18T14:41:24;26.40;98.40
18406;DHT22;9329;48.720;9.588;2022-10-18T14:43:52;26.40;99.60
18406;DHT22;9329;48.720;9.588;2022-10-18T14:46:20;26.70;99.30
18406;DHT22;9329;48.720;9.588;2022-10-18T14:48:53;26.40;99.20
18406;DHT22;9329;48.720;9.588;2022-10-18T14:51:20;24.80;99.90
18406;DHT22;9329;48.720;9.588;2022-10-18T14:53:47;25.00;99.90
18406;DHT22;9329;48.720;9.588;2022-10-18T14:56:19;24.80;99.90
18406;DHT22;9329;48.720;9.588;2022-10-18T14:58:48;24.90;99.90
18406;DHT22;9329;48.720;9.588;2022-10-18T15:01:17;25.00;99.90
18406;DHT22;9329;48.720;9.588;2022-10-18T15:03:45;25.20;99.90
18406;DHT22;9329;48.720;9.588;2022-10-18T15:06:14;25.50;99.90
18406;DHT22;9329;48.720;9.588;2022-10-18T15:08:41;24.70;99.90
18406;DHT22;9329;48.720;9.588;2022-10-18T15:11:09;23.80;99.90
18406;DHT22;9329;48.720;9.588;2022-10-18T15:13:40;24.00;99.90
18406;DHT22;9329;48.720;9.588;2022-10-18T15:16:16;24.20;99.90
18406;DHT22;9329;48.720;9.588;2022-10-18T15:18:47;24.30;99.90
18406;DHT22;9329;48.720;9.588;2022-10-18T15:21:24;24.00;99.90
18406;DHT22;9329;48.720;9.588;2022-10-18T15:23:51;23.90;99.90
18406;DHT22;9329;48.720;9.588;2022-10-18T15:26:20;24.00;99.90
18406;DHT22;9329;48.720;9.588;2022-10-18T15:28:49;23.90;99.90
18406;DHT22;9329;48.720;9.588;2022-10-18T15:31:22;23.70;99.90
18406;DHT22;9329;48.720;9.588;2022-10-18T15:33:52;23.80;99.90
18406;DHT22;9329;48.720;9.588;2022-10-18T15:36:23;23.60;99.90
18406;DHT22;9329;48.720;9.588;2022-10-18T15:39:12;23.30;99.90
18406;DHT22;9329;48.720;9.588;2022-10-18T15:41:45;23.10;99.90
18406;DHT22;9329;48.720;9.588;2022-10-18T15:44:18;22.90;99.90
18406;DHT22;9329;48.720;9.588;2022-10-18T15:46:46;22.90;99.90
18406;DHT22;9329;48.720;9.588;2022-10-18T15:54:43;23.40;99.90
18406;DHT22;9329;48.720;9.588;2022-10-18T15:57:10;23.50;99.90
18406;DHT22;9329;48.720;9.588;2022-10-18T15:59:38;23.20;99.90
18406;DHT22;9329;48.720;9.588;2022-10-18T16:02:13;23.10;99.90
18406;DHT22;9329;48.720;9.588;2022-10-18T16:04:41;23.10;99.90
18406;DHT22;9329;48.720;9.588;2022-10-18T16:07:08;22.90;99.90
18406;DHT22;9329;48.720;9.588;2022-10-18T16:09:38;22.70;99.90
18406;DHT22;9329;48.720;9.588;2022-10-18T16:12:05;22.70;99.90
18406;DHT22;9329;48.720;9.588;2022-10-18T16:14:32;22.40;99.90
18406;DHT22;9329;48.720;9.588;2022-10-18T16:17:00;22.30;99.90
18406;DHT22;9329;48.720;9.588;2022-10-18T16:19:29;22.20;99.90
18406;DHT22;9329;48.720;9.588;2022-10-18T16:21:56;22.20;99.90
18406;DHT22;9329;48.720;9.588;2022-10-18T16:24:24;22.30;99.90